sensor_id;sensor_type;location;lat;lon;timestamp;pressure;altitude;pressure_sealevel;temperature;humidity
72024;BME280;59889;50.700;5.440;2023-06-04T00:00:47;100430.43;;;26.85;25.66
72024;BME280;59889;50.700;5.440;2023-06-04T00:03:12;100426.71;;;26.93;25.55
72024;BME280;59889;50.700;5.440;2023-06-04T00:05:38;100428.33;;;26.72;25.78
72024;BME280;59889;50.700;5.440;2023-06-04T00:08:04;100422.81;;;26.92;25.60
72024;BME280;59889;50.700;5.440;2023-06-04T00:10:30;100423.00;;;26.68;25.82
72024;BME280;59889;50.700;5.440;2023-06-04T00:12:56;100419.88;;;26.89;25.61
72024;BME280;59889;50.700;5.440;2023-06-04T00:15:22;100420.63;;;27.02;25.71
72024;BME280;59889;50.700;5.440;2023-06-04T00:17:48;100418.86;;;26.71;25.79
72024;BME280;59889;50.700;5.440;2023-06-04T00:20:13;100413.53;;;26.85;25.64
72024;BME280;59889;50.700;5.440;2023-06-04T00:22:38;100411.77;;;27.11;25.64
72024;BME280;59889;50.700;5.440;2023-06-04T00:25:05;100410.75;;;26.85;25.68
72024;BME280;59889;50.700;5.440;2023-06-04T00:27:30;100411.75;;;27.00;25.73
72024;BME280;59889;50.700;5.440;2023-06-04T00:29:56;100407.08;;;26.86;25.68
72024;BME280;59889;50.700;5.440;2023-06-04T00:32:22;100404.89;;;26.82;25.73
72024;BME280;59889;50.700;5.440;2023-06-04T00:34:50;100403.99;;;27.00;25.55
72024;BME280;59889;50.700;5.440;2023-06-04T00:37:14;100401.82;;;27.02;25.77
72024;BME280;59889;50.700;5.440;2023-06-04T00:39:39;100395.47;;;26.95;25.59
72024;BME280;59889;50.700;5.440;2023-06-04T00:42:06;100394.02;;;27.17;25.65
72024;BME280;59889;50.700;5.440;2023-06-04T00:44:31;100393.87;;;26.87;25.72
72024;BME280;59889;50.700;5.440;2023-06-04T00:46:57;100392.94;;;26.89;25.68
72024;BME280;59889;50.700;5.440;2023-06-04T00:49:23;100394.05;;;26.72;25.88
72024;BME280;59889;50.700;5.440;2023-06-04T00:51:49;100396.96;;;26.93;25.68
72024;BME280;59889;50.700;5.440;2023-06-04T00:54:15;100394.32;;;27.18;25.67
72024;BME280;59889;50.700;5.440;2023-06-04T00:56:41;100392.73;;;26.91;25.68
72024;BME280;59889;50.700;5.440;2023-06-04T00:59:08;100390.33;;;26.90;25.71
72024;BME280;59889;50.700;5.440;2023-06-04T01:01:39;100390.45;;;26.92;25.69
72024;BME280;59889;50.700;5.440;2023-06-04T01:04:00;100393.30;;;26.91;25.71
72024;BME280;59889;50.700;5.440;2023-06-04T01:06:30;100395.31;;;26.56;25.80
72024;BME280;59889;50.700;5.440;2023-06-04T01:08:50;100397.19;;;26.85;25.80
72024;BME280;59889;50.700;5.440;2023-06-04T01:11:15;100400.38;;;26.89;25.74
72024;BME280;59889;50.700;5.440;2023-06-04T01:13:41;100397.90;;;26.88;25.77
72024;BME280;59889;50.700;5.440;2023-06-04T01:16:08;100396.33;;;26.92;25.75
72024;BME280;59889;50.700;5.440;2023-06-04T01:18:35;100395.97;;;26.59;25.81
72024;BME280;59889;50.700;5.440;2023-06-04T01:21:01;100398.05;;;26.76;25.89
72024;BME280;59889;50.700;5.440;2023-06-04T01:23:31;100398.71;;;26.40;25.77
72024;BME280;59889;50.700;5.440;2023-06-04T01:25:51;100402.26;;;26.89;25.77
72024;BME280;59889;50.700;5.440;2023-06-04T01:28:17;100403.82;;;26.85;25.81
72024;BME280;59889;50.700;5.440;2023-06-04T01:30:44;100405.33;;;26.83;25.83
72024;BME280;59889;50.700;5.440;2023-06-04T01:33:09;100405.26;;;26.56;25.90
72024;BME280;59889;50.700;5.440;2023-06-04T01:35:34;100404.98;;;26.93;25.76
72024;BME280;59889;50.700;5.440;2023-06-04T01:38:00;100404.57;;;27.07;25.84
72024;BME280;59889;50.700;5.440;2023-06-04T01:40:26;100402.00;;;26.80;25.90
72024;BME280;59889;50.700;5.440;2023-06-04T01:42:52;100399.73;;;27.07;25.89
72024;BME280;59889;50.700;5.440;2023-06-04T01:45:18;100399.49;;;26.83;25.85
72024;BME280;59889;50.700;5.440;2023-06-04T01:47:43;100400.33;;;26.83;26.07
72024;BME280;59889;50.700;5.440;2023-06-04T01:50:10;100394.71;;;26.79;25.92
72024;BME280;59889;50.700;5.440;2023-06-04T01:52:35;100395.01;;;26.67;26.01
72024;BME280;59889;50.700;5.440;2023-06-04T01:55:01;100395.18;;;26.78;25.94
72024;BME280;59889;50.700;5.440;2023-06-04T01:57:27;100396.39;;;26.76;25.96
72024;BME280;59889;50.700;5.440;2023-06-04T01:59:53;100397.84;;;26.78;25.95
72024;BME280;59889;50.700;5.440;2023-06-04T02:02:19;100401.01;;;26.86;26.10
72024;BME280;59889;50.700;5.440;2023-06-04T02:04:44;100398.58;;;26.72;26.02
72024;BME280;59889;50.700;5.440;2023-06-04T02:07:11;100403.05;;;26.93;26.05
72024;BME280;59889;50.700;5.440;2023-06-04T02:09:36;100406.82;;;26.74;26.03
72024;BME280;59889;50.700;5.440;2023-06-04T02:12:02;100406.25;;;26.84;25.93
72024;BME280;59889;50.700;5.440;2023-06-04T02:14:28;100407.89;;;26.81;25.94
72024;BME280;59889;50.700;5.440;2023-06-04T02:16:54;100409.92;;;26.76;25.99
72024;BME280;59889;50.700;5.440;2023-06-04T02:19:19;100412.87;;;26.78;25.97
72024;BME280;59889;50.700;5.440;2023-06-04T02:21:45;100412.31;;;26.76;25.98
72024;BME280;59889;50.700;5.440;2023-06-04T02:24:12;100411.12;;;26.48;26.05
72024;BME280;59889;50.700;5.440;2023-06-04T02:26:37;100413.65;;;26.35;26.17
72024;BME280;59889;50.700;5.440;2023-06-04T02:29:03;100415.97;;;26.97;26.03
72024;BME280;59889;50.700;5.440;2023-06-04T02:31:29;100415.23;;;26.77;26.01
72024;BME280;59889;50.700;5.440;2023-06-04T02:33:55;100413.83;;;26.98;26.03
72024;BME280;59889;50.700;5.440;2023-06-04T02:36:20;100411.28;;;26.78;26.00
72024;BME280;59889;50.700;5.440;2023-06-04T02:38:46;100416.98;;;26.73;26.06
72024;BME280;59889;50.700;5.440;2023-06-04T02:41:12;100415.62;;;26.50;26.26
72024;BME280;59889;50.700;5.440;2023-06-04T02:43:38;100417.12;;;26.72;26.06
72024;BME280;59889;50.700;5.440;2023-06-04T02:46:04;100418.05;;;26.71;26.07
72024;BME280;59889;50.700;5.440;2023-06-04T02:48:30;100421.10;;;26.70;26.09
72024;BME280;59889;50.700;5.440;2023-06-04T02:50:56;100427.06;;;26.73;26.05
72024;BME280;59889;50.700;5.440;2023-06-04T02:53:22;100427.26;;;26.93;26.10
72024;BME280;59889;50.700;5.440;2023-06-04T02:55:47;100420.83;;;26.77;26.06
72024;BME280;59889;50.700;5.440;2023-06-04T02:58:13;100422.49;;;26.66;26.13
72024;BME280;59889;50.700;5.440;2023-06-04T03:00:38;100415.61;;;26.75;26.06
72024;BME280;59889;50.700;5.440;2023-06-04T03:03:04;100415.76;;;26.92;26.12
72024;BME280;59889;50.700;5.440;2023-06-04T03:05:30;100413.07;;;26.95;26.10
72024;BME280;59889;50.700;5.440;2023-06-04T03:07:55;100418.03;;;26.85;26.22
72024;BME280;59889;50.700;5.440;2023-06-04T03:10:21;100421.46;;;26.62;26.22
72024;BME280;59889;50.700;5.440;2023-06-04T03:12:47;100423.10;;;26.91;26.15
72024;BME280;59889;50.700;5.440;2023-06-04T03:15:12;100419.59;;;26.78;26.25
72024;BME280;59889;50.700;5.440;2023-06-04T03:17:38;100422.45;;;26.61;26.25
72024;BME280;59889;50.700;5.440;2023-06-04T03:20:05;100421.24;;;26.92;26.15
72024;BME280;59889;50.700;5.440;2023-06-04T03:22:30;100419.67;;;26.87;26.21
72024;BME280;59889;50.700;5.440;2023-06-04T03:24:56;100419.00;;;26.82;26.22
72024;BME280;59889;50.700;5.440;2023-06-04T03:27:23;100421.24;;;26.60;26.22
72024;BME280;59889;50.700;5.440;2023-06-04T03:29:48;100423.16;;;26.66;26.18
72024;BME280;59889;50.700;5.440;2023-06-04T03:32:13;100422.59;;;26.84;26.22
72024;BME280;59889;50.700;5.440;2023-06-04T03:34:39;100422.39;;;26.56;26.27
72024;BME280;59889;50.700;5.440;2023-06-04T03:37:05;100426.89;;;26.76;26.28
72024;BME280;59889;50.700;5.440;2023-06-04T03:39:31;100425.78;;;26.67;26.19
72024;BME280;59889;50.700;5.440;2023-06-04T03:41:57;100424.65;;;26.78;26.05
72024;BME280;59889;50.700;5.440;2023-06-04T03:44:23;100422.03;;;26.67;26.15
72024;BME280;59889;50.700;5.440;2023-06-04T03:46:49;100421.82;;;26.63;26.23
72024;BME280;59889;50.700;5.440;2023-06-04T03:49:14;100417.72;;;26.55;26.29
72024;BME280;59889;50.700;5.440;2023-06-04T03:51:41;100419.19;;;26.64;26.42
72024;BME280;59889;50.700;5.440;2023-06-04T03:54:06;100420.12;;;26.60;26.24
72024;BME280;59889;50.700;5.440;2023-06-04T03:56:32;100417.56;;;26.73;26.34
72024;BME280;59889;50.700;5.440;2023-06-04T03:58:58;100419.49;;;26.86;26.24
72024;BME280;59889;50.700;5.440;2023-06-04T04:01:24;100418.75;;;26.60;26.24
72024;BME280;59889;50.700;5.440;2023-06-04T04:03:50;100419.03;;;26.66;26.20
72024;BME280;59889;50.700;5.440;2023-06-04T04:06:16;100419.09;;;26.89;26.21
72024;BME280;59889;50.700;5.440;2023-06-04T04:08:41;100419.58;;;26.83;26.26
72024;BME280;59889;50.700;5.440;2023-06-04T04:11:06;100419.46;;;26.82;26.26
72024;BME280;59889;50.700;5.440;2023-06-04T04:13:32;100420.48;;;26.77;26.32
72024;BME280;59889;50.700;5.440;2023-06-04T04:15:58;100421.61;;;26.77;26.30
72024;BME280;59889;50.700;5.440;2023-06-04T04:18:24;100422.02;;;26.53;26.34
72024;BME280;59889;50.700;5.440;2023-06-04T04:20:50;100425.05;;;27.00;26.35
72024;BME280;59889;50.700;5.440;2023-06-04T04:23:16;100430.56;;;26.88;26.22
72024;BME280;59889;50.700;5.440;2023-06-04T04:25:42;100430.95;;;26.77;26.32
72024;BME280;59889;50.700;5.440;2023-06-04T04:28:07;100432.04;;;26.50;26.35
72024;BME280;59889;50.700;5.440;2023-06-04T04:30:33;100429.47;;;26.44;26.43
72024;BME280;59889;50.700;5.440;2023-06-04T04:32:59;100429.11;;;26.76;26.37
72024;BME280;59889;50.700;5.440;2023-06-04T04:35:25;100426.64;;;26.52;26.32
72024;BME280;59889;50.700;5.440;2023-06-04T04:37:51;100426.51;;;26.28;26.33
72024;BME280;59889;50.700;5.440;2023-06-04T04:40:17;100428.73;;;26.59;26.25
72024;BME280;59889;50.700;5.440;2023-06-04T04:42:43;100429.51;;;26.44;26.40
72024;BME280;59889;50.700;5.440;2023-06-04T04:45:09;100428.99;;;26.42;26.42
72024;BME280;59889;50.700;5.440;2023-06-04T04:47:34;100434.29;;;26.48;26.63
72024;BME280;59889;50.700;5.440;2023-06-04T04:50:00;100436.51;;;26.45;26.41
72024;BME280;59889;50.700;5.440;2023-06-04T04:52:26;100439.99;;;26.39;26.44
72024;BME280;59889;50.700;5.440;2023-06-04T04:54:52;100442.64;;;26.69;26.45
72024;BME280;59889;50.700;5.440;2023-06-04T04:57:18;100442.85;;;26.79;26.33
72024;BME280;59889;50.700;5.440;2023-06-04T04:59:43;100443.83;;;26.64;26.47
72024;BME280;59889;50.700;5.440;2023-06-04T05:02:08;100448.23;;;26.25;26.90
72024;BME280;59889;50.700;5.440;2023-06-04T05:04:34;100448.26;;;26.00;26.75
72024;BME280;59889;50.700;5.440;2023-06-04T05:06:58;100444.20;;;26.09;26.50
72024;BME280;59889;50.700;5.440;2023-06-04T05:09:24;100443.23;;;26.02;26.38
72024;BME280;59889;50.700;5.440;2023-06-04T05:11:48;100443.25;;;26.22;26.26
72024;BME280;59889;50.700;5.440;2023-06-04T05:14:14;100444.71;;;25.97;26.13
72024;BME280;59889;50.700;5.440;2023-06-04T05:16:39;100445.45;;;25.95;26.02
72024;BME280;59889;50.700;5.440;2023-06-04T05:19:05;100446.60;;;26.37;25.73
72024;BME280;59889;50.700;5.440;2023-06-04T05:21:31;100445.80;;;26.03;25.75
72024;BME280;59889;50.700;5.440;2023-06-04T05:23:57;100450.41;;;25.93;25.75
72024;BME280;59889;50.700;5.440;2023-06-04T05:26:22;100452.14;;;26.33;25.46
72024;BME280;59889;50.700;5.440;2023-06-04T05:28:47;100454.62;;;25.91;25.75
72024;BME280;59889;50.700;5.440;2023-06-04T05:31:12;100455.29;;;26.43;25.44
72024;BME280;59889;50.700;5.440;2023-06-04T05:33:37;100454.21;;;26.13;25.47
72024;BME280;59889;50.700;5.440;2023-06-04T05:36:03;100450.85;;;25.78;25.51
72024;BME280;59889;50.700;5.440;2023-06-04T05:38:28;100449.98;;;26.09;25.37
72024;BME280;59889;50.700;5.440;2023-06-04T05:40:53;100450.41;;;26.24;25.20
72024;BME280;59889;50.700;5.440;2023-06-04T05:43:18;100455.03;;;25.96;25.17
72024;BME280;59889;50.700;5.440;2023-06-04T05:45:43;100457.25;;;26.31;25.00
72024;BME280;59889;50.700;5.440;2023-06-04T05:48:08;100459.51;;;26.19;25.03
72024;BME280;59889;50.700;5.440;2023-06-04T05:50:33;100459.00;;;26.22;25.04
72024;BME280;59889;50.700;5.440;2023-06-04T05:52:58;100457.03;;;26.22;24.97
72024;BME280;59889;50.700;5.440;2023-06-04T05:55:23;100461.85;;;25.84;25.14
72024;BME280;59889;50.700;5.440;2023-06-04T05:57:48;100463.36;;;26.28;24.96
72024;BME280;59889;50.700;5.440;2023-06-04T06:00:14;100464.43;;;26.35;24.96
72024;BME280;59889;50.700;5.440;2023-06-04T06:03:29;100464.20;;;26.20;25.22
72024;BME280;59889;50.700;5.440;2023-06-04T06:05:05;100467.18;;;26.27;25.03
72024;BME280;59889;50.700;5.440;2023-06-04T06:07:29;100467.91;;;26.01;25.00
72024;BME280;59889;50.700;5.440;2023-06-04T06:09:54;100468.09;;;26.34;24.91
72024;BME280;59889;50.700;5.440;2023-06-04T06:12:20;100471.84;;;26.39;24.91
72024;BME280;59889;50.700;5.440;2023-06-04T06:14:45;100471.30;;;25.99;25.08
72024;BME280;59889;50.700;5.440;2023-06-04T06:17:11;100471.70;;;26.08;24.42
72024;BME280;59889;50.700;5.440;2023-06-04T06:19:36;100473.13;;;26.12;23.93
72024;BME280;59889;50.700;5.440;2023-06-04T06:22:01;100477.37;;;26.30;23.62
72024;BME280;59889;50.700;5.440;2023-06-04T06:24:26;100476.70;;;25.61;23.55
72024;BME280;59889;50.700;5.440;2023-06-04T06:26:51;100479.33;;;25.76;23.06
72024;BME280;59889;50.700;5.440;2023-06-04T06:29:16;100478.01;;;25.59;22.58
72024;BME280;59889;50.700;5.440;2023-06-04T06:31:41;100483.29;;;25.81;22.62
72024;BME280;59889;50.700;5.440;2023-06-04T06:34:06;100482.39;;;25.83;22.80
72024;BME280;59889;50.700;5.440;2023-06-04T06:36:31;100485.30;;;25.39;23.05
72024;BME280;59889;50.700;5.440;2023-06-04T06:38:56;100485.23;;;25.90;22.96
72024;BME280;59889;50.700;5.440;2023-06-04T06:41:21;100485.61;;;25.88;22.55
72024;BME280;59889;50.700;5.440;2023-06-04T06:43:46;100487.38;;;25.33;22.26
72024;BME280;59889;50.700;5.440;2023-06-04T06:46:12;100485.34;;;26.16;21.83
72024;BME280;59889;50.700;5.440;2023-06-04T06:48:37;100487.60;;;25.83;22.28
72024;BME280;59889;50.700;5.440;2023-06-04T06:51:02;100491.40;;;25.76;22.31
72024;BME280;59889;50.700;5.440;2023-06-04T06:53:28;100492.27;;;25.83;22.26
72024;BME280;59889;50.700;5.440;2023-06-04T06:55:54;100489.62;;;26.04;22.62
72024;BME280;59889;50.700;5.440;2023-06-04T06:58:19;100493.43;;;26.20;23.19
72024;BME280;59889;50.700;5.440;2023-06-04T07:00:45;100494.46;;;26.23;23.11
72024;BME280;59889;50.700;5.440;2023-06-04T07:03:10;100498.29;;;26.21;23.08
72024;BME280;59889;50.700;5.440;2023-06-04T07:05:35;100501.01;;;25.92;23.23
72024;BME280;59889;50.700;5.440;2023-06-04T07:08:00;100504.17;;;26.01;22.64
72024;BME280;59889;50.700;5.440;2023-06-04T07:10:25;100502.39;;;25.07;23.09
72024;BME280;59889;50.700;5.440;2023-06-04T07:12:50;100498.71;;;24.79;24.04
72024;BME280;59889;50.700;5.440;2023-06-04T07:15:15;100502.20;;;26.07;22.68
72024;BME280;59889;50.700;5.440;2023-06-04T07:17:40;100504.84;;;26.21;22.68
72024;BME280;59889;50.700;5.440;2023-06-04T07:20:07;100506.19;;;26.12;21.92
72024;BME280;59889;50.700;5.440;2023-06-04T07:22:32;100506.58;;;26.25;21.82
72024;BME280;59889;50.700;5.440;2023-06-04T07:24:58;100508.66;;;26.29;21.51
72024;BME280;59889;50.700;5.440;2023-06-04T07:27:23;100509.00;;;26.49;21.51
72024;BME280;59889;50.700;5.440;2023-06-04T07:29:48;100510.68;;;26.18;21.62
72024;BME280;59889;50.700;5.440;2023-06-04T07:32:13;100507.33;;;26.59;21.63
72024;BME280;59889;50.700;5.440;2023-06-04T07:34:38;100511.49;;;26.51;21.58
72024;BME280;59889;50.700;5.440;2023-06-04T07:37:03;100508.45;;;26.54;21.78
72024;BME280;59889;50.700;5.440;2023-06-04T07:39:28;100508.85;;;26.33;21.91
72024;BME280;59889;50.700;5.440;2023-06-04T07:41:53;100511.30;;;26.28;21.69
72024;BME280;59889;50.700;5.440;2023-06-04T07:44:18;100511.49;;;26.74;22.06
72024;BME280;59889;50.700;5.440;2023-06-04T07:46:43;100510.72;;;26.60;22.13
72024;BME280;59889;50.700;5.440;2023-06-04T07:49:09;100510.80;;;26.67;22.59
72024;BME280;59889;50.700;5.440;2023-06-04T07:51:33;100511.83;;;26.43;22.59
72024;BME280;59889;50.700;5.440;2023-06-04T07:53:58;100513.46;;;26.74;22.95
72024;BME280;59889;50.700;5.440;2023-06-04T07:56:23;100515.04;;;26.60;22.76
72024;BME280;59889;50.700;5.440;2023-06-04T07:58:48;100516.76;;;26.44;22.49
72024;BME280;59889;50.700;5.440;2023-06-04T08:01:13;100517.79;;;26.43;22.59
72024;BME280;59889;50.700;5.440;2023-06-04T08:03:39;100517.39;;;26.14;22.99
72024;BME280;59889;50.700;5.440;2023-06-04T08:06:04;100518.52;;;26.16;24.44
72024;BME280;59889;50.700;5.440;2023-06-04T08:08:29;100514.62;;;26.67;23.72
72024;BME280;59889;50.700;5.440;2023-06-04T08:10:54;100517.60;;;26.14;23.92
72024;BME280;59889;50.700;5.440;2023-06-04T08:13:19;100519.94;;;26.38;24.09
72024;BME280;59889;50.700;5.440;2023-06-04T08:15:44;100521.53;;;26.57;24.18
72024;BME280;59889;50.700;5.440;2023-06-04T08:18:09;100520.14;;;26.35;23.98
72024;BME280;59889;50.700;5.440;2023-06-04T08:20:34;100519.41;;;26.41;23.49
72024;BME280;59889;50.700;5.440;2023-06-04T08:22:59;100519.92;;;26.25;23.38
72024;BME280;59889;50.700;5.440;2023-06-04T08:25:24;100518.09;;;26.34;23.01
72024;BME280;59889;50.700;5.440;2023-06-04T08:27:49;100519.86;;;26.36;23.06
72024;BME280;59889;50.700;5.440;2023-06-04T08:30:14;100523.85;;;26.39;23.49
72024;BME280;59889;50.700;5.440;2023-06-04T08:32:39;100521.58;;;26.60;23.66
72024;BME280;59889;50.700;5.440;2023-06-04T08:35:05;100523.01;;;26.63;24.09
72024;BME280;59889;50.700;5.440;2023-06-04T08:37:29;100522.41;;;26.54;23.57
72024;BME280;59889;50.700;5.440;2023-06-04T08:39:54;100520.66;;;26.40;23.04
72024;BME280;59889;50.700;5.440;2023-06-04T08:42:24;100520.52;;;26.23;22.49
72024;BME280;59889;50.700;5.440;2023-06-04T08:44:45;100513.98;;;26.36;22.25
72024;BME280;59889;50.700;5.440;2023-06-04T08:47:12;100520.80;;;26.29;22.02
72024;BME280;59889;50.700;5.440;2023-06-04T08:49:35;100521.21;;;26.30;22.13
72024;BME280;59889;50.700;5.440;2023-06-04T08:51:59;100517.86;;;26.24;22.05
72024;BME280;59889;50.700;5.440;2023-06-04T08:54:26;100521.08;;;26.21;21.81
72024;BME280;59889;50.700;5.440;2023-06-04T08:56:50;100521.43;;;26.43;21.56
72024;BME280;59889;50.700;5.440;2023-06-04T08:59:16;100517.76;;;26.40;21.95
72024;BME280;59889;50.700;5.440;2023-06-04T09:01:41;100519.40;;;26.28;22.23
72024;BME280;59889;50.700;5.440;2023-06-04T09:04:06;100520.84;;;26.71;22.16
72024;BME280;59889;50.700;5.440;2023-06-04T09:06:32;100522.18;;;26.26;22.18
72024;BME280;59889;50.700;5.440;2023-06-04T09:08:57;100518.87;;;26.46;22.21
72024;BME280;59889;50.700;5.440;2023-06-04T09:11:22;100520.97;;;25.97;22.20
72024;BME280;59889;50.700;5.440;2023-06-04T09:13:47;100518.96;;;26.30;21.93
72024;BME280;59889;50.700;5.440;2023-06-04T09:16:12;100518.91;;;26.20;21.62
72024;BME280;59889;50.700;5.440;2023-06-04T09:18:37;100516.96;;;26.43;21.63
72024;BME280;59889;50.700;5.440;2023-06-04T09:21:03;100513.36;;;26.62;21.89
72024;BME280;59889;50.700;5.440;2023-06-04T09:23:27;100516.16;;;26.42;21.78
72024;BME280;59889;50.700;5.440;2023-06-04T09:25:53;100513.77;;;26.30;21.82
72024;BME280;59889;50.700;5.440;2023-06-04T09:28:18;100514.78;;;26.70;21.20
72024;BME280;59889;50.700;5.440;2023-06-04T09:30:51;100515.27;;;26.43;21.17
72024;BME280;59889;50.700;5.440;2023-06-04T09:33:08;100516.19;;;26.60;21.44
72024;BME280;59889;50.700;5.440;2023-06-04T09:35:33;100514.28;;;26.25;21.17
72024;BME280;59889;50.700;5.440;2023-06-04T09:37:58;100513.94;;;26.43;21.17
72024;BME280;59889;50.700;5.440;2023-06-04T09:40:24;100512.79;;;26.55;20.88
72024;BME280;59889;50.700;5.440;2023-06-04T09:42:49;100511.60;;;26.18;20.73
72024;BME280;59889;50.700;5.440;2023-06-04T09:45:13;100511.42;;;26.39;20.54
72024;BME280;59889;50.700;5.440;2023-06-04T09:47:40;100512.01;;;26.48;20.53
72024;BME280;59889;50.700;5.440;2023-06-04T09:50:03;100512.13;;;26.70;20.33
72024;BME280;59889;50.700;5.440;2023-06-04T09:52:32;100510.59;;;26.30;20.44
72024;BME280;59889;50.700;5.440;2023-06-04T09:54:53;100511.46;;;26.47;20.46
72024;BME280;59889;50.700;5.440;2023-06-04T09:57:18;100513.28;;;26.40;20.54
72024;BME280;59889;50.700;5.440;2023-06-04T09:59:44;100514.99;;;26.75;20.71
72024;BME280;59889;50.700;5.440;2023-06-04T10:02:08;100510.62;;;26.40;20.91
72024;BME280;59889;50.700;5.440;2023-06-04T10:04:34;100512.46;;;26.39;20.85
72024;BME280;59889;50.700;5.440;2023-06-04T10:06:58;100510.48;;;26.38;21.29
72024;BME280;59889;50.700;5.440;2023-06-04T10:09:24;100516.53;;;27.06;21.25
72024;BME280;59889;50.700;5.440;2023-06-04T10:11:53;100511.37;;;26.66;21.64
72024;BME280;59889;50.700;5.440;2023-06-04T10:14:19;100507.72;;;26.31;21.85
72024;BME280;59889;50.700;5.440;2023-06-04T10:16:39;100508.74;;;26.63;21.58
72024;BME280;59889;50.700;5.440;2023-06-04T10:19:07;100503.37;;;26.47;21.40
72024;BME280;59889;50.700;5.440;2023-06-04T10:21:29;100503.84;;;26.46;21.64
72024;BME280;59889;50.700;5.440;2023-06-04T10:23:54;100503.18;;;26.24;21.69
72024;BME280;59889;50.700;5.440;2023-06-04T10:26:19;100499.36;;;26.64;21.85
72024;BME280;59889;50.700;5.440;2023-06-04T10:28:44;100498.12;;;26.74;21.76
72024;BME280;59889;50.700;5.440;2023-06-04T10:31:09;100501.60;;;26.39;21.85
72024;BME280;59889;50.700;5.440;2023-06-04T10:33:34;100496.22;;;26.33;21.89
72024;BME280;59889;50.700;5.440;2023-06-04T10:38:24;100494.36;;;26.13;21.84
72024;BME280;59889;50.700;5.440;2023-06-04T10:40:50;100499.80;;;26.28;21.87
72024;BME280;59889;50.700;5.440;2023-06-04T10:43:15;100491.72;;;26.52;21.71
72024;BME280;59889;50.700;5.440;2023-06-04T10:45:40;100501.02;;;26.43;21.78
72024;BME280;59889;50.700;5.440;2023-06-04T10:48:06;100496.31;;;26.50;21.59
72024;BME280;59889;50.700;5.440;2023-06-04T10:50:30;100495.00;;;26.40;21.50
72024;BME280;59889;50.700;5.440;2023-06-04T10:52:55;100490.42;;;26.35;21.53
72024;BME280;59889;50.700;5.440;2023-06-04T10:55:19;100488.64;;;26.32;21.72
72024;BME280;59889;50.700;5.440;2023-06-04T10:57:52;100494.51;;;26.19;21.58
72024;BME280;59889;50.700;5.440;2023-06-04T11:00:10;100491.24;;;26.71;21.30
72024;BME280;59889;50.700;5.440;2023-06-04T11:02:34;100488.76;;;26.31;21.34
72024;BME280;59889;50.700;5.440;2023-06-04T11:05:01;100491.32;;;26.40;21.36
72024;BME280;59889;50.700;5.440;2023-06-04T11:07:24;100496.68;;;26.47;21.21
72024;BME280;59889;50.700;5.440;2023-06-04T11:09:50;100491.37;;;26.90;21.37
72024;BME280;59889;50.700;5.440;2023-06-04T11:12:14;100490.84;;;26.44;21.37
72024;BME280;59889;50.700;5.440;2023-06-04T11:14:39;100492.43;;;26.35;21.49
72024;BME280;59889;50.700;5.440;2023-06-04T11:17:10;100489.58;;;26.62;21.45
72024;BME280;59889;50.700;5.440;2023-06-04T11:19:35;100492.23;;;26.37;21.24
72024;BME280;59889;50.700;5.440;2023-06-04T11:21:55;100490.92;;;26.60;21.14
72024;BME280;59889;50.700;5.440;2023-06-04T11:24:19;100487.43;;;26.55;21.01
72024;BME280;59889;50.700;5.440;2023-06-04T11:26:44;100484.03;;;26.46;21.09
72024;BME280;59889;50.700;5.440;2023-06-04T11:29:11;100487.91;;;26.37;21.03
72024;BME280;59889;50.700;5.440;2023-06-04T11:31:40;100488.16;;;26.61;20.98
72024;BME280;59889;50.700;5.440;2023-06-04T11:33:59;100490.34;;;26.46;20.98
72024;BME280;59889;50.700;5.440;2023-06-04T11:36:25;100487.36;;;26.39;20.96
72024;BME280;59889;50.700;5.440;2023-06-04T11:38:54;100480.73;;;26.72;20.87
72024;BME280;59889;50.700;5.440;2023-06-04T11:41:14;100482.36;;;26.44;20.99
72024;BME280;59889;50.700;5.440;2023-06-04T11:43:40;100482.92;;;26.71;20.97
72024;BME280;59889;50.700;5.440;2023-06-04T11:46:06;100479.99;;;26.54;21.10
72024;BME280;59889;50.700;5.440;2023-06-04T11:48:30;100474.79;;;26.75;20.87
72024;BME280;59889;50.700;5.440;2023-06-04T11:50:54;100466.41;;;26.71;20.92
72024;BME280;59889;50.700;5.440;2023-06-04T11:53:20;100483.84;;;26.39;21.13
72024;BME280;59889;50.700;5.440;2023-06-04T11:55:45;100474.99;;;26.58;20.83
72024;BME280;59889;50.700;5.440;2023-06-04T11:58:10;100475.87;;;26.68;20.84
72024;BME280;59889;50.700;5.440;2023-06-04T12:00:35;100471.96;;;26.89;20.87
72024;BME280;59889;50.700;5.440;2023-06-04T12:03:00;100477.50;;;26.65;20.99
72024;BME280;59889;50.700;5.440;2023-06-04T12:05:29;100471.96;;;26.66;21.00
72024;BME280;59889;50.700;5.440;2023-06-04T12:07:50;100476.39;;;26.40;21.24
72024;BME280;59889;50.700;5.440;2023-06-04T12:10:15;100474.93;;;26.70;21.15
72024;BME280;59889;50.700;5.440;2023-06-04T12:12:40;100470.05;;;26.70;21.23
72024;BME280;59889;50.700;5.440;2023-06-04T12:15:05;100468.77;;;26.71;21.21
72024;BME280;59889;50.700;5.440;2023-06-04T12:17:30;100467.08;;;26.80;21.25
72024;BME280;59889;50.700;5.440;2023-06-04T12:19:55;100472.85;;;26.91;21.33
72024;BME280;59889;50.700;5.440;2023-06-04T12:22:20;100467.25;;;26.56;21.44
72024;BME280;59889;50.700;5.440;2023-06-04T12:24:48;100468.05;;;26.73;21.27
72024;BME280;59889;50.700;5.440;2023-06-04T12:27:10;100464.45;;;26.93;21.13
72024;BME280;59889;50.700;5.440;2023-06-04T12:29:35;100460.67;;;26.74;21.08
72024;BME280;59889;50.700;5.440;2023-06-04T12:32:03;100462.50;;;27.08;20.96
72024;BME280;59889;50.700;5.440;2023-06-04T12:34:25;100463.90;;;26.77;21.04
72024;BME280;59889;50.700;5.440;2023-06-04T12:36:50;100461.11;;;27.00;21.10
72024;BME280;59889;50.700;5.440;2023-06-04T12:39:15;100461.72;;;26.97;20.82
72024;BME280;59889;50.700;5.440;2023-06-04T12:41:45;100461.83;;;26.44;20.87